Time;durP1;ratioP1;P1;durP2;ratioP2;P2;SDS_P1;SDS_P2;PMS_P1;PMS_P2;Temp;Humidity;BMP_temperature;BMP_pressure;BME280_temperature;BME280_humidity;BME280_pressure;Samples;Min_cycle;Max_cycle;Signal;HPM_P1;HPM_P2
2022/12/19 00:00:30;;;;;;;48.58;27.40;;;;;;;0.05;100.00;101770.06;5054019;28;20530;-54
2022/12/19 00:02:55;;;;;;;44.90;26.45;;;;;;;0.05;100.00;101762.22;5054398;28;20024;-53
2022/12/19 00:05:21;;;;;;;43.97;26.30;;;;;;;0.07;100.00;101764.81;5054974;28;20025;-52
2022/12/19 00:07:47;;;;;;;50.33;26.98;;;;;;;0.11;100.00;101769.09;5052391;28;20063;-54
2022/12/19 00:10:13;;;;;;;47.55;27.20;;;;;;;0.12;100.00;101742.94;5054719;28;20025;-56
2022/12/19 00:12:38;;;;;;;50.53;28.73;;;;;;;0.13;100.00;101749.00;5054263;28;20528;-57
2022/12/19 00:15:04;;;;;;;49.38;27.17;;;;;;;0.17;100.00;101748.06;5054249;28;20123;-57
2022/12/19 00:17:31;;;;;;;49.97;29.33;;;;;;;0.16;100.00;101755.03;5052859;28;20132;-55
2022/12/19 00:19:57;;;;;;;51.22;29.00;;;;;;;0.16;100.00;101746.34;5054429;28;20028;-54
2022/12/19 00:22:22;;;;;;;51.53;29.30;;;;;;;0.18;100.00;101749.78;5054129;28;20033;-55
2022/12/19 00:24:47;;;;;;;51.95;29.23;;;;;;;0.21;100.00;101754.94;5053259;28;20087;-57
2022/12/19 00:27:13;;;;;;;52.28;28.63;;;;;;;0.23;100.00;101740.09;5053950;28;20028;-54
2022/12/19 00:29:38;;;;;;;47.10;26.83;;;;;;;0.27;100.00;101740.94;5053517;28;20112;-57
2022/12/19 00:32:03;;;;;;;53.40;29.15;;;;;;;0.29;100.00;101731.31;5053703;28;20079;-56
2022/12/19 00:34:29;;;;;;;45.58;26.92;;;;;;;0.32;100.00;101733.88;5054068;28;20067;-55
2022/12/19 00:36:54;;;;;;;50.65;28.88;;;;;;;0.33;100.00;101732.94;5052701;28;20476;-53
2022/12/19 00:39:20;;;;;;;50.35;27.98;;;;;;;0.35;100.00;101721.59;5054275;28;20120;-56
2022/12/19 00:41:45;;;;;;;49.28;29.10;;;;;;;0.39;100.00;101719.78;5053154;28;20056;-56
2022/12/19 00:44:15;;;;;;;49.15;29.23;;;;;;;0.41;100.00;101722.34;5053775;28;20462;-55
2022/12/19 00:46:40;;;;;;;46.67;26.63;;;;;;;0.47;100.00;101717.88;5053527;28;20132;-54
2022/12/19 00:49:06;;;;;;;44.85;26.55;;;;;;;0.48;100.00;101721.34;5053037;28;20463;-57
2022/12/19 00:51:34;;;;;;;45.60;27.38;;;;;;;0.50;100.00;101715.19;5050062;28;20132;-57
2022/12/19 00:54:00;;;;;;;47.92;28.05;;;;;;;0.52;100.00;101716.00;5044214;28;20522;-55
2022/12/19 00:56:29;;;;;;;53.83;28.25;;;;;;;0.56;100.00;101714.19;5052993;28;20101;-57
2022/12/19 00:58:55;;;;;;;43.90;27.53;;;;;;;0.55;100.00;101694.19;5053718;28;20036;-56
2022/12/19 01:01:33;;;;;;;44.70;27.02;;;;;;;0.56;100.00;101690.66;5052910;28;20021;-55
2022/12/19 01:04:00;;;;;;;47.70;27.20;;;;;;;0.60;100.00;101687.13;5040587;28;20052;-55
2022/12/19 01:06:25;;;;;;;50.03;28.10;;;;;;;0.62;100.00;101694.91;5051866;28;20024;-55
2022/12/19 01:08:51;;;;;;;47.90;27.25;;;;;;;0.65;100.00;101697.44;5053428;28;20079;-54
2022/12/19 01:11:16;;;;;;;44.30;27.05;;;;;;;0.67;100.00;101695.69;5053009;28;20036;-53
2022/12/19 01:13:42;;;;;;;53.17;27.50;;;;;;;0.71;100.00;101692.94;5052993;28;20053;-55
2022/12/19 01:16:12;;;;;;;46.97;26.02;;;;;;;0.72;100.00;101688.59;5052312;28;20032;-55
2022/12/19 01:18:38;;;;;;;46.92;27.55;;;;;;;0.75;100.00;101685.91;5053069;28;20033;-54
2022/12/19 01:21:06;;;;;;;44.90;26.98;;;;;;;0.74;100.00;101689.41;5052846;28;20044;-54
2022/12/19 01:23:32;;;;;;;48.35;26.88;;;;;;;0.77;100.00;101678.88;5053100;28;20108;-54
2022/12/19 01:25:58;;;;;;;45.70;27.92;;;;;;;0.76;100.00;101674.53;5052087;28;20116;-52
2022/12/19 01:28:23;;;;;;;44.00;25.85;;;;;;;0.77;100.00;101665.81;5053182;28;20379;-53
2022/12/19 01:30:50;;;;;;;48.55;26.88;;;;;;;0.79;100.00;101660.56;5052432;28;20463;-53
2022/12/19 01:33:16;;;;;;;44.90;26.73;;;;;;;0.79;100.00;101664.03;5053088;28;20040;-55
2022/12/19 01:35:42;;;;;;;45.72;26.23;;;;;;;0.80;100.00;101670.97;5051885;28;20048;-53
2022/12/19 01:38:16;;;;;;;47.00;27.17;;;;;;;0.83;100.00;101662.19;5052024;28;20060;-56
2022/12/19 01:40:53;;;;;;;49.13;27.63;;;;;;;0.85;100.00;101663.00;5038966;28;20023;-52
2022/12/19 01:43:18;;;;;;;42.50;25.67;;;;;;;0.85;100.00;101676.97;5052472;28;20032;-53
2022/12/19 01:45:46;;;;;;;43.38;25.95;;;;;;;0.86;100.00;101662.97;5051728;28;20383;-55
2022/12/19 01:48:25;;;;;;;44.67;26.77;;;;;;;0.89;100.00;101662.06;5052886;28;20025;-56
2022/12/19 01:51:11;;;;;;;45.80;27.13;;;;;;;0.90;100.00;101664.63;5052008;28;20036;-52
2022/12/19 01:53:45;;;;;;;42.78;25.83;;;;;;;0.90;100.00;101666.41;5040244;28;20046;-55
2022/12/19 01:56:11;;;;;;;46.28;25.17;;;;;;;0.90;100.00;101662.03;5052480;28;20032;-56
2022/12/19 01:58:45;;;;;;;45.38;26.88;;;;;;;0.92;100.00;101662.84;5052228;28;20055;-52
2022/12/19 02:01:11;;;;;;;46.78;25.45;;;;;;;0.92;100.00;101652.38;5049479;28;20025;-52
2022/12/19 02:03:37;;;;;;;47.42;26.92;;;;;;;0.94;100.00;101656.72;5042333;28;20414;-54
2022/12/19 02:06:04;;;;;;;43.95;26.50;;;;;;;0.95;100.00;101650.59;5051761;28;20021;-55
2022/12/19 02:08:30;;;;;;;49.90;28.35;;;;;;;0.96;100.00;101639.22;5052269;28;20493;-53
2022/12/19 02:10:55;;;;;;;45.33;26.83;;;;;;;0.97;100.00;101636.59;5052026;28;20044;-53
2022/12/19 02:13:22;;;;;;;50.05;27.98;;;;;;;0.98;100.00;101634.81;5051545;28;20384;-52
2022/12/19 02:16:06;;;;;;;46.03;26.10;;;;;;;1.03;100.00;101625.09;5052024;28;20028;-55
2022/12/19 02:18:40;;;;;;;48.60;26.52;;;;;;;1.02;100.00;101620.78;5052605;28;20033;-53
2022/12/19 02:21:17;;;;;;;54.35;29.27;;;;;;;1.03;100.00;101623.38;5051569;28;20479;-54
2022/12/19 02:24:16;;;;;;;49.53;27.85;;;;;;;1.04;100.00;101616.38;5051376;28;20098;-53
2022/12/19 02:27:10;;;;;;;46.53;26.52;;;;;;;1.03;100.00;101610.28;5051471;28;20102;-55
2022/12/19 02:29:57;;;;;;;49.30;27.27;;;;;;;1.06;100.00;101604.09;5042551;28;20048;-53
2022/12/19 02:32:47;;;;;;;45.63;26.33;;;;;;;1.09;100.00;101604.03;5039807;28;20437;-54
2022/12/19 02:35:22;;;;;;;52.08;27.27;;;;;;;1.08;100.00;101605.81;5036414;28;20021;-55
2022/12/19 02:38:00;;;;;;;48.72;25.95;;;;;;;1.11;100.00;101604.84;5043907;28;20151;-56
2022/12/19 02:40:33;;;;;;;51.88;26.27;;;;;;;1.14;100.00;101596.94;5040172;28;20033;-55
2022/12/19 02:43:00;;;;;;;49.33;26.38;;;;;;;1.19;100.00;101595.06;5051571;28;20032;-54
2022/12/19 02:45:31;;;;;;;47.88;27.10;;;;;;;1.25;100.00;101592.28;5051508;28;20031;-56
2022/12/19 02:47:59;;;;;;;50.80;28.02;;;;;;;1.29;100.00;101585.22;5049074;28;20079;-53
2022/12/19 02:50:24;;;;;;;51.03;27.02;;;;;;;1.34;100.00;101585.09;5041477;28;20021;-56
2022/12/19 02:52:49;;;;;;;54.50;27.77;;;;;;;1.41;100.00;101578.78;5051640;28;20036;-55
2022/12/19 02:55:22;;;;;;;49.60;26.85;;;;;;;1.45;100.00;101572.59;5051979;28;20014;-54
2022/12/19 02:58:06;;;;;;;51.72;27.13;;;;;;;1.51;100.00;101569.78;5053305;28;20025;-54
2022/12/19 03:00:39;;;;;;;47.58;25.23;;;;;;;1.52;100.00;101555.81;5055491;28;20082;-56
2022/12/19 03:03:22;;;;;;;48.38;26.02;;;;;;;1.56;100.00;101559.19;5051606;28;20029;-55
2022/12/19 03:06:03;;;;;;;48.58;26.15;;;;;;;1.60;100.00;101564.31;5046017;28;20044;-55
2022/12/19 03:08:43;;;;;;;49.53;27.45;;;;;;;1.64;100.00;101565.94;5054254;28;20025;-51
2022/12/19 03:11:12;;;;;;;;;;;;;;;1.68;100.00;101556.22;5054974;28;20035;-54
2022/12/19 03:13:44;;;;;;;42.20;23.73;;;;;;;1.74;100.00;101560.44;5055152;28;20047;-55
2022/12/19 03:16:11;;;;;;;45.42;23.63;;;;;;;1.80;100.00;101565.53;5055358;28;20518;-55
2022/12/19 03:18:37;;;;;;;44.10;24.67;;;;;;;1.84;100.00;101560.13;5054677;28;20028;-54
2022/12/19 03:21:27;;;;;;;47.17;24.67;;;;;;;1.87;100.00;101553.09;5055148;28;20127;-53
2022/12/19 03:23:54;;;;;;;45.75;24.20;;;;;;;1.93;100.00;101558.16;5054972;28;20029;-54
2022/12/19 03:26:22;;;;;;;46.80;23.90;;;;;;;1.95;100.00;101556.34;5054857;28;20029;-53
2022/12/19 03:29:17;;;;;;;46.37;23.47;;;;;;;2.01;100.00;101551.78;5055264;28;20026;-53
2022/12/19 03:31:45;;;;;;;41.47;21.65;;;;;;;2.14;100.00;101549.66;5043769;28;20041;-54
2022/12/19 03:34:20;;;;;;;42.53;21.48;;;;;;;2.21;100.00;101556.44;5055309;28;20028;-57
2022/12/19 03:36:50;;;;;;;46.25;22.52;;;;;;;2.32;100.00;101550.00;5054551;28;20025;-55
2022/12/19 03:39:18;;;;;;;39.90;21.27;;;;;;;2.37;100.00;101543.72;5050874;28;20036;-55
2022/12/19 03:44:32;;;;;;;38.28;20.45;;;;;;;2.57;100.00;101526.50;5044881;28;20068;-56
2022/12/19 03:47:05;;;;;;;38.00;19.90;;;;;;;2.71;100.00;101537.38;5054966;28;20432;-53
2022/12/19 03:49:31;;;;;;;39.13;20.20;;;;;;;2.83;100.00;101540.50;5055147;28;20033;-56
2022/12/19 03:52:14;;;;;;;38.03;20.25;;;;;;;2.93;100.00;101540.19;5053704;28;20071;-55
2022/12/19 03:54:44;;;;;;;39.13;20.60;;;;;;;3.01;100.00;101536.44;5054098;28;20036;-56
2022/12/19 03:57:18;;;;;;;37.58;20.00;;;;;;;3.07;100.00;101529.19;5054519;28;20040;-54
2022/12/19 03:59:50;;;;;;;40.40;21.38;;;;;;;3.15;100.00;101539.44;5054833;28;20037;-56
2022/12/19 04:02:18;;;;;;;36.35;21.35;;;;;;;3.19;100.00;101527.91;5053428;28;20037;-54
2022/12/19 04:04:59;;;;;;;39.40;21.83;;;;;;;3.21;100.00;101526.09;5053217;28;20025;-57
2022/12/19 04:07:25;;;;;;;36.17;18.85;;;;;;;3.27;100.00;101531.13;5043007;28;20033;-53
2022/12/19 04:09:52;;;;;;;38.83;20.65;;;;;;;3.32;100.00;101533.59;5053699;28;20031;-56
2022/12/19 04:12:23;;;;;;;38.45;20.17;;;;;;;3.34;100.00;101527.38;5053599;28;20150;-55
2022/12/19 04:14:48;;;;;;;35.30;19.40;;;;;;;3.38;100.00;101527.25;5053797;28;20071;-55
2022/12/19 04:17:38;;;;;;;37.67;20.67;;;;;;;3.42;100.00;101515.75;5054283;28;20034;-57
2022/12/19 04:20:11;;;;;;;34.85;19.95;;;;;;;3.47;100.00;101512.03;5054600;28;20025;-55
2022/12/19 04:22:54;;;;;;;36.78;19.52;;;;;;;3.52;100.00;101512.72;5053479;28;20029;-55
2022/12/19 04:25:34;;;;;;;33.25;17.77;;;;;;;3.58;100.00;101513.41;5054089;28;20029;-55
2022/12/19 04:28:04;;;;;;;32.75;19.05;;;;;;;3.63;100.00;101508.84;5053549;28;20029;-57
2022/12/19 04:30:31;;;;;;;33.55;18.70;;;;;;;3.68;100.00;101509.53;5054576;28;20032;-57
2022/12/19 04:32:58;;;;;;;32.78;17.35;;;;;;;3.75;100.00;101510.16;5053900;28;20032;-55
2022/12/19 04:35:23;;;;;;;34.35;18.73;;;;;;;3.78;100.00;101510.06;5052887;28;20029;-56
2022/12/19 04:37:50;;;;;;;32.75;18.65;;;;;;;3.82;100.00;101501.16;5052871;28;20100;-56
2022/12/19 04:40:16;;;;;;;30.02;18.15;;;;;;;3.85;100.00;101507.16;5041768;28;20041;-57
2022/12/19 04:42:41;;;;;;;30.52;17.45;;;;;;;3.89;100.00;101500.00;5051987;28;20028;-51
2022/12/19 04:45:07;;;;;;;31.73;17.70;;;;;;;3.93;100.00;101501.59;5051975;28;20041;-53
2022/12/19 04:47:32;;;;;;;28.00;17.10;;;;;;;3.99;100.00;101506.59;5053454;28;20013;-57
2022/12/19 04:49:57;;;;;;;32.22;18.63;;;;;;;4.06;100.00;101507.22;5053475;28;20037;-56
2022/12/19 04:52:23;;;;;;;32.20;18.75;;;;;;;4.07;100.00;101504.53;5053268;28;20017;-55
2022/12/19 04:54:48;;;;;;;29.95;18.05;;;;;;;4.10;100.00;101506.22;5053787;28;20031;-57
2022/12/19 04:57:13;;;;;;;30.75;17.85;;;;;;;4.14;100.00;101499.91;5053477;28;20029;-56
2022/12/19 04:59:38;;;;;;;29.13;18.13;;;;;;;4.16;100.00;101513.84;5051357;28;20108;-56
2022/12/19 05:02:04;;;;;;;30.42;17.98;;;;;;;4.20;100.00;101510.19;5051661;28;20021;-58
2022/12/19 05:04:29;;;;;;;29.67;18.30;;;;;;;4.26;100.00;101509.97;5052181;28;20025;-55
2022/12/19 05:06:54;;;;;;;30.15;18.35;;;;;;;4.29;100.00;101497.59;5053130;28;20026;-56
2022/12/19 05:09:20;;;;;;;29.70;18.33;;;;;;;4.30;100.00;101501.91;5053374;28;20383;-57
2022/12/19 05:11:45;;;;;;;34.55;18.05;;;;;;;4.33;100.00;101489.53;5052815;28;20355;-57
2022/12/19 05:14:11;;;;;;;30.92;18.08;;;;;;;4.35;100.00;101505.25;5051941;28;20372;-58
2022/12/19 05:16:36;;;;;;;30.58;17.27;;;;;;;4.35;100.00;101492.94;5052675;28;20017;-58
2022/12/19 05:19:01;;;;;;;29.13;16.83;;;;;;;4.41;100.00;101495.34;5052457;28;20033;-57
2022/12/19 05:21:26;;;;;;;29.10;16.95;;;;;;;4.44;100.00;101491.72;5052338;28;20021;-58
2022/12/19 05:23:52;;;;;;;31.20;17.40;;;;;;;4.47;100.00;101490.75;5053209;28;20025;-57
2022/12/19 05:26:18;;;;;;;26.42;17.52;;;;;;;4.50;100.00;101493.25;5052343;28;20028;-53
2022/12/19 05:28:43;;;;;;;29.50;17.13;;;;;;;4.53;100.00;101498.38;5052727;28;20036;-57
2022/12/19 05:31:14;;;;;;;28.80;17.15;;;;;;;4.56;100.00;101495.63;5052551;28;20116;-53
2022/12/19 05:33:40;;;;;;;27.83;16.88;;;;;;;4.56;100.00;101478.06;5052939;28;20033;-57
2022/12/19 05:36:07;;;;;;;27.75;17.00;;;;;;;4.57;100.00;101502.59;5052206;28;20489;-55
2022/12/19 05:38:33;;;;;;;26.20;16.73;;;;;;;4.63;100.00;101487.41;5052729;28;20020;-59
2022/12/19 05:40:58;;;;;;;27.98;16.77;;;;;;;4.71;100.00;101489.72;5039825;28;20446;-58
2022/12/19 05:43:24;;;;;;;24.88;15.93;;;;;;;4.74;100.00;101494.00;5052843;28;20025;-58
2022/12/19 05:45:49;;;;;;;23.75;16.08;;;;;;;4.75;100.00;101487.84;5051789;28;20036;-58
2022/12/19 05:48:15;;;;;;;21.58;15.70;;;;;;;4.79;100.00;101482.34;5052770;28;20036;-58
2022/12/19 05:50:40;;;;;;;24.35;16.02;;;;;;;4.81;100.00;101491.06;5052507;28;20021;-58
2022/12/19 05:53:05;;;;;;;22.95;15.18;;;;;;;4.83;100.00;101485.75;5051978;28;20386;-57
2022/12/19 05:55:31;;;;;;;26.55;15.45;;;;;;;4.88;100.00;101489.03;5052594;28;20039;-59
2022/12/19 05:57:56;;;;;;;22.77;15.57;;;;;;;4.88;100.00;101491.66;5052779;28;20036;-57
2022/12/19 06:00:21;;;;;;;22.83;14.10;;;;;;;4.94;100.00;101494.00;5051462;28;20032;-57
2022/12/19 06:02:47;;;;;;;22.48;14.93;;;;;;;4.97;100.00;101500.94;5052379;28;20467;-58
2022/12/19 06:05:12;;;;;;;22.67;14.27;;;;;;;4.99;100.00;101497.28;5051810;28;20024;-57
2022/12/19 06:07:38;;;;;;;21.73;14.95;;;;;;;4.98;100.00;101490.34;5052739;28;20036;-58
2022/12/19 06:10:04;;;;;;;22.85;14.40;;;;;;;5.00;100.00;101485.00;5051411;28;20112;-57
2022/12/19 06:12:29;;;;;;;20.65;14.50;;;;;;;5.02;100.00;101490.22;5052479;28;20432;-57
2022/12/19 06:14:54;;;;;;;22.95;14.52;;;;;;;5.03;100.00;101497.16;5052200;28;20120;-57
2022/12/19 06:17:20;;;;;;;22.00;14.73;;;;;;;5.06;100.00;101491.78;5051791;28;20063;-57
2022/12/19 06:19:45;;;;;;;22.30;14.48;;;;;;;5.08;100.00;101492.56;5050847;28;20017;-57
2022/12/19 06:22:10;;;;;;;19.77;14.30;;;;;;;5.12;100.00;101496.78;5051710;28;20029;-57
2022/12/19 06:24:36;;;;;;;21.45;14.00;;;;;;;5.13;100.00;101482.69;5051392;28;20104;-57
2022/12/19 06:27:01;;;;;;;19.98;13.85;;;;;;;5.17;100.00;101479.00;5051760;28;20036;-57
2022/12/19 06:29:26;;;;;;;21.42;14.02;;;;;;;5.21;100.00;101490.25;5052073;28;20028;-57
2022/12/19 06:31:51;;;;;;;20.27;13.32;;;;;;;5.24;100.00;101480.44;5053575;28;20463;-57
2022/12/19 06:34:17;;;;;;;22.13;14.65;;;;;;;5.28;100.00;101494.31;5056024;28;20029;-57
2022/12/19 06:36:42;;;;;;;20.13;13.77;;;;;;;5.33;100.00;101490.59;5056659;28;20096;-57
2022/12/19 06:39:12;;;;;;;21.30;13.93;;;;;;;5.35;100.00;101507.16;5052035;28;20029;-56
2022/12/19 06:44:22;;;;;;;19.60;13.75;;;;;;;5.37;100.00;101507.94;5055134;28;20036;-55
2022/12/19 06:46:47;;;;;;;19.17;13.57;;;;;;;5.40;100.00;101504.34;5054715;28;20021;-58
2022/12/19 06:49:12;;;;;;;17.35;12.48;;;;;;;5.44;100.00;101505.91;5056843;28;20028;-57
2022/12/19 06:51:38;;;;;;;19.80;14.07;;;;;;;5.44;100.00;101513.81;5054038;28;20455;-57
2022/12/19 06:54:03;;;;;;;19.40;14.02;;;;;;;5.45;100.00;101502.34;5051850;28;20064;-57
2022/12/19 06:56:34;;;;;;;22.15;13.57;;;;;;;5.46;100.00;101511.09;5056442;28;20387;-57
2022/12/19 06:58:59;;;;;;;19.40;12.88;;;;;;;5.46;100.00;101508.47;5043610;28;20025;-57
2022/12/19 07:01:43;;;;;;;19.88;13.73;;;;;;;5.47;100.00;101503.13;5055372;28;20032;-58
2022/12/19 07:04:11;;;;;;;16.83;13.07;;;;;;;5.48;100.00;101518.03;5049810;28;20039;-56
2022/12/19 07:06:37;;;;;;;19.42;13.25;;;;;;;5.52;100.00;101503.78;5055020;28;20041;-58
2022/12/19 07:09:04;;;;;;;18.02;13.00;;;;;;;5.53;100.00;101505.50;5043359;28;20040;-57
2022/12/19 07:11:29;;;;;;;19.42;14.05;;;;;;;5.55;100.00;101502.81;5045568;28;20037;-56
2022/12/19 07:13:54;;;;;;;18.85;14.70;;;;;;;5.52;100.00;101495.88;5042058;28;20056;-56
2022/12/19 07:16:20;;;;;;;17.90;12.68;;;;;;;5.53;100.00;101502.88;5044418;28;20414;-55
2022/12/19 07:18:45;;;;;;;19.00;12.57;;;;;;;5.54;100.00;101511.63;5049698;28;20035;-58
2022/12/19 07:21:11;;;;;;;21.17;13.82;;;;;;;5.57;100.00;101503.59;5042366;28;20091;-56
2022/12/19 07:23:38;;;;;;;18.40;13.35;;;;;;;5.56;100.00;101507.13;5051369;28;20043;-55
2022/12/19 07:26:03;;;;;;;20.15;14.02;;;;;;;5.55;100.00;101501.00;5052110;28;20029;-56
2022/12/19 07:28:28;;;;;;;17.63;13.00;;;;;;;5.55;100.00;101502.81;5041504;28;20505;-56
2022/12/19 07:30:54;;;;;;;18.08;12.45;;;;;;;5.56;100.00;101502.72;5043577;28;20027;-55
2022/12/19 07:33:19;;;;;;;18.50;12.93;;;;;;;5.57;100.00;101509.69;5053224;28;20111;-55
2022/12/19 07:35:44;;;;;;;16.85;12.13;;;;;;;5.61;100.00;101512.19;5051966;28;20476;-56
2022/12/19 07:38:10;;;;;;;17.67;11.85;;;;;;;5.62;100.00;101508.66;5041318;28;20056;-53
2022/12/19 07:40:35;;;;;;;15.50;12.45;;;;;;;5.62;100.00;101501.59;5047877;28;20051;-55
2022/12/19 07:43:04;;;;;;;16.50;12.07;;;;;;;5.65;100.00;101508.50;5048306;28;20059;-55
2022/12/19 07:45:31;;;;;;;17.73;11.88;;;;;;;5.65;100.00;101503.25;5049202;28;20025;-54
2022/12/19 07:48:00;;;;;;;17.38;11.88;;;;;;;5.66;100.00;101504.94;5050396;28;20040;-56
2022/12/19 07:50:26;;;;;;;15.05;11.30;;;;;;;5.67;100.00;101506.66;5047454;28;20050;-56
2022/12/19 07:52:51;;;;;;;16.20;11.38;;;;;;;5.68;100.00;101519.78;5046563;28;20400;-56
2022/12/19 07:55:16;;;;;;;14.35;11.27;;;;;;;5.70;100.00;101509.16;5048341;28;20093;-55
2022/12/19 07:57:42;;;;;;;13.90;11.30;;;;;;;5.73;100.00;101511.66;5048109;28;20041;-55
2022/12/19 08:00:08;;;;;;;18.55;11.55;;;;;;;5.75;100.00;101525.63;5049957;28;20029;-55
2022/12/19 08:02:33;;;;;;;17.85;11.05;;;;;;;5.77;100.00;101521.13;5051895;28;20037;-54
2022/12/19 08:04:58;;;;;;;16.90;10.95;;;;;;;5.79;100.00;101526.31;5048322;28;20116;-56
2022/12/19 08:07:23;;;;;;;16.27;11.57;;;;;;;5.80;100.00;101523.63;5050892;28;20486;-56
2022/12/19 08:09:49;;;;;;;12.88;10.05;;;;;;;5.81;100.00;101530.63;5047911;28;20033;-52
2022/12/19 08:12:14;;;;;;;14.25;10.95;;;;;;;5.82;100.00;101529.69;5043949;28;20511;-52
2022/12/19 08:14:39;;;;;;;15.07;10.35;;;;;;;5.84;100.00;101537.50;5047358;28;20054;-56
2022/12/19 08:17:04;;;;;;;13.85;9.45;;;;;;;5.87;100.00;101530.31;5046780;28;20037;-57
2022/12/19 08:19:30;;;;;;;13.70;9.63;;;;;;;5.92;100.00;101536.22;5050645;28;20463;-56
2022/12/19 08:21:55;;;;;;;16.10;9.85;;;;;;;5.96;100.00;101530.81;5050268;28;20514;-56
2022/12/19 08:24:20;;;;;;;13.43;9.90;;;;;;;5.99;100.00;101525.44;5047496;28;20029;-56
2022/12/19 08:26:45;;;;;;;12.85;9.57;;;;;;;6.01;100.00;101528.84;5049598;28;20025;-55
2022/12/19 08:29:11;;;;;;;13.18;9.68;;;;;;;5.99;100.00;101531.56;5051685;28;20068;-55
2022/12/19 08:31:36;;;;;;;16.38;9.13;;;;;;;6.01;100.00;101515.66;5050752;28;20112;-55
2022/12/19 08:34:02;;;;;;;12.43;9.82;;;;;;;6.02;100.00;101526.16;5051843;28;20063;-55
2022/12/19 08:36:27;;;;;;;11.55;9.65;;;;;;;6.02;100.00;101539.34;5046161;28;20663;-52
2022/12/19 08:38:52;;;;;;;15.25;9.32;;;;;;;6.04;100.00;101542.75;5045177;28;20041;-55
2022/12/19 08:41:18;;;;;;;13.43;8.93;;;;;;;6.08;100.00;101544.34;5050163;28;20306;-57
2022/12/19 08:43:48;;;;;;;15.95;9.82;;;;;;;6.10;100.00;101549.53;5050405;28;20534;-57
2022/12/19 08:46:13;;;;;;;11.45;8.68;;;;;;;6.10;100.00;101545.09;5048539;28;20055;-55
2022/12/19 08:48:38;;;;;;;12.65;9.02;;;;;;;6.13;100.00;101540.63;5046148;28;20041;-56
2022/12/19 08:51:06;;;;;;;10.10;8.38;;;;;;;6.15;100.00;101541.41;5050422;28;20029;-56
2022/12/19 08:53:34;;;;;;;11.18;8.38;;;;;;;6.17;100.00;101542.19;5049369;28;20052;-56
2022/12/19 08:56:12;;;;;;;9.57;8.40;;;;;;;6.20;100.00;101534.16;5047125;28;20025;-56
2022/12/19 08:58:37;;;;;;;10.05;8.15;;;;;;;6.24;100.00;101543.59;5048670;28;20039;-55
2022/12/19 09:01:07;;;;;;;9.82;8.05;;;;;;;6.26;100.00;101545.25;5049322;28;20029;-56
2022/12/19 09:03:33;;;;;;;12.63;8.05;;;;;;;6.26;100.00;101534.72;5049756;28;20192;-56
2022/12/19 09:06:00;;;;;;;9.60;7.70;;;;;;;6.29;100.00;101538.97;5049751;28;20136;-56
2022/12/19 09:08:29;;;;;;;11.65;8.85;;;;;;;6.31;100.00;101542.38;5037340;28;20028;-56
2022/12/19 09:11:06;;;;;;;11.27;7.50;;;;;;;6.34;100.00;101552.78;5041422;28;20071;-56
2022/12/19 09:13:33;;;;;;;10.88;8.10;;;;;;;6.39;100.00;101549.94;5047207;28;20122;-56
2022/12/19 09:16:12;;;;;;;10.75;7.80;;;;;;;6.40;100.00;101544.59;5034783;28;20057;-56
2022/12/19 09:18:38;;;;;;;8.38;7.47;;;;;;;6.42;100.00;101552.44;5037945;28;20068;-56
2022/12/19 09:21:04;;;;;;;10.35;8.05;;;;;;;6.44;100.00;101564.63;5043698;28;20025;-56
2022/12/19 09:23:33;;;;;;;11.68;7.82;;;;;;;6.44;100.00;101545.31;5042143;28;20532;-57
2022/12/19 09:26:04;;;;;;;11.43;8.18;;;;;;;6.49;100.00;101551.22;5052480;28;20032;-56
2022/12/19 09:28:29;;;;;;;12.93;7.97;;;;;;;6.51;100.00;101557.25;5052388;28;20025;-55
2022/12/19 09:31:03;;;;;;;10.02;7.32;;;;;;;6.50;100.00;101552.94;5036051;28;20075;-57
2022/12/19 09:33:30;;;;;;;10.18;7.47;;;;;;;6.53;100.00;101563.34;5047492;28;20026;-56
2022/12/19 09:35:56;;;;;;;11.25;7.90;;;;;;;6.56;100.00;101552.66;5044188;28;20096;-55
2022/12/19 09:38:25;;;;;;;9.68;7.15;;;;;;;6.57;100.00;101554.34;5048922;28;20506;-55
2022/12/19 09:40:56;;;;;;;10.35;7.30;;;;;;;6.60;100.00;101551.56;5047118;28;20048;-56
2022/12/19 09:43:51;;;;;;;8.43;7.20;;;;;;;6.63;100.00;101550.56;5048179;28;20092;-56
2022/12/19 09:46:30;;;;;;;7.97;7.13;;;;;;;6.65;100.00;101553.97;5046506;28;20069;-55
2022/12/19 09:48:56;;;;;;;8.68;6.82;;;;;;;6.67;100.00;101552.09;5044272;28;20025;-55
2022/12/19 09:51:42;;;;;;;9.38;7.18;;;;;;;6.69;100.00;101550.25;5041694;28;20025;-55
2022/12/19 09:54:22;;;;;;;11.15;7.53;;;;;;;6.72;100.00;101551.88;5046055;28;20025;-56
2022/12/19 09:56:51;;;;;;;9.48;7.32;;;;;;;6.76;100.00;101558.72;5040519;28;20039;-55
2022/12/19 09:59:41;;;;;;;8.23;7.18;;;;;;;6.80;100.00;101560.28;5052005;28;20036;-56
2022/12/19 10:02:12;;;;;;;9.27;6.75;;;;;;;6.83;100.00;101565.44;5052740;28;20025;-54
2022/12/19 10:04:46;;;;;;;12.50;7.22;;;;;;;6.87;100.00;101566.97;5050636;28;20071;-55
2022/12/19 10:07:18;;;;;;;9.68;7.15;;;;;;;6.93;100.00;101568.44;5024293;28;20463;-56
2022/12/19 10:09:43;;;;;;;8.23;6.78;;;;;;;6.94;100.00;101570.16;5047167;28;20039;-54
2022/12/19 10:12:56;;;;;;;8.40;6.97;;;;;;;7.00;100.00;101570.72;5037059;28;20471;-54
2022/12/19 10:15:36;;;;;;;10.02;7.00;;;;;;;7.01;100.00;101561.88;5055063;28;20479;-54
2022/12/19 10:18:14;;;;;;;9.55;6.63;;;;;;;7.07;100.00;101567.78;5045418;28;20032;-56
2022/12/19 10:20:49;;;;;;;11.77;6.28;;;;;;;7.08;100.00;101572.97;5034835;28;20018;-55
2022/12/19 10:23:34;;;;;;;11.50;6.75;;;;;;;7.13;100.00;101564.81;5047464;28;20025;-56
2022/12/19 10:26:12;;;;;;;11.68;6.57;;;;;;;7.13;100.00;101551.63;5051161;28;20028;-53
2022/12/19 10:28:47;;;;;;;11.00;6.93;;;;;;;7.16;100.00;101552.31;5052056;28;20029;-54
2022/12/19 10:31:20;;;;;;;8.32;6.00;;;;;;;7.16;100.00;101570.81;5043355;28;20492;-54
2022/12/19 10:33:54;;;;;;;13.20;6.25;;;;;;;7.19;100.00;101567.13;5048743;28;20025;-56
2022/12/19 10:36:22;;;;;;;8.43;5.90;;;;;;;7.21;100.00;101576.72;5039511;28;20041;-53
2022/12/19 10:39:05;;;;;;;8.68;6.38;;;;;;;7.19;100.00;101569.78;5033893;28;20013;-56
2022/12/19 10:41:31;;;;;;;6.80;6.10;;;;;;;7.19;100.00;101564.50;5036224;28;20175;-54
2022/12/19 10:44:05;;;;;;;9.10;6.63;;;;;;;7.18;100.00;101560.16;5048457;28;20013;-55
2022/12/19 10:46:44;;;;;;;10.65;6.35;;;;;;;7.20;100.00;101568.84;5057856;28;20021;-56
2022/12/19 10:49:20;;;;;;;8.85;5.50;;;;;;;7.22;100.00;101565.19;5041545;28;20067;-55
2022/12/19 10:51:54;;;;;;;7.45;6.03;;;;;;;7.23;100.00;101571.34;5038476;28;20036;-56
2022/12/19 10:54:21;;;;;;;8.43;5.97;;;;;;;7.20;100.00;101555.66;5037250;28;20075;-55
2022/12/19 10:56:47;;;;;;;7.18;5.63;;;;;;;7.21;100.00;101571.44;5036404;28;20391;-56
2022/12/19 10:59:18;;;;;;;8.05;5.93;;;;;;;7.19;100.00;101560.09;5035964;28;20025;-56
2022/12/19 11:01:44;;;;;;;8.60;5.70;;;;;;;7.19;100.00;101559.22;5045205;28;20030;-56
2022/12/19 11:04:10;;;;;;;7.32;5.85;;;;;;;7.18;100.00;101552.25;5038198;28;20025;-56
2022/12/19 11:06:45;;;;;;;7.82;5.47;;;;;;;7.18;100.00;101547.78;5036279;28;20109;-56
2022/12/19 11:09:28;;;;;;;7.72;5.50;;;;;;;7.18;100.00;101555.72;5047681;28;20107;-56
2022/12/19 11:12:18;;;;;;;7.55;5.82;;;;;;;7.16;100.00;101549.66;5048664;28;20033;-56
2022/12/19 11:14:52;;;;;;;8.93;6.38;;;;;;;7.15;100.00;101545.31;5044236;28;20044;-54
2022/12/19 11:17:33;;;;;;;9.57;6.18;;;;;;;7.17;100.00;101545.22;5027834;28;20052;-53
2022/12/19 11:19:58;;;;;;;7.88;6.13;;;;;;;7.15;100.00;101525.97;5048673;28;20029;-55
2022/12/19 11:22:29;;;;;;;8.90;5.90;;;;;;;7.15;100.00;101534.75;5049780;28;20063;-56
2022/12/19 11:24:55;;;;;;;8.40;5.95;;;;;;;7.15;100.00;101532.09;5034832;28;20076;-56
2022/12/19 11:27:39;;;;;;;8.40;5.55;;;;;;;7.18;100.00;101528.47;5044784;28;20041;-52